Austin, Colorado
Current Conditions -  °F | °C
As of 1:15 PM on Saturday 20 Dec 2014 (Local Time) from KAJZ Reporting Station
Broken Clouds Broken Clouds  
Wind Chill: 40°   Ceiling: 6000
Heat Index: 40°   Visibility: 10mi
Dew Point: 24°   Wind: 0mph
Humidity: 54%   Direction: NA
Pressure: 30.11"   Gusts: NA
Location:  38.78°N, 107.95°W
Report Text: KAJZ 202015Z AUTO 00000KT 10SM BKN060 04/M04 A3011 RMK AO2 T00421043
Loading
Personal Weather Stations






























Interactive Weather Map New forecast layout! Learn more

10-Day Weather Forecast

Advertisements
Track Severe Weather on mobile